createdAt,value
2022-10-22T00:03:54.828Z,4.20
2022-10-22T00:08:56.710Z,4.20
2022-10-22T00:13:58.513Z,4.30
2022-10-22T00:19:00.485Z,4.70
2022-10-22T00:24:02.423Z,5.10
2022-10-22T00:29:04.143Z,4.30
2022-10-22T00:34:05.887Z,4.70
2022-10-22T00:39:07.607Z,4.30
2022-10-22T00:44:47.774Z,4.60
2022-10-22T00:54:52.430Z,4.80
2022-10-22T00:59:55.886Z,4.70
2022-10-22T01:04:57.674Z,5.20
2022-10-22T01:10:18.225Z,5.20
2022-10-22T01:15:34.928Z,4.90
2022-10-22T01:21:04.413Z,4.50
2022-10-22T01:26:26.009Z,4.80
2022-10-22T01:31:32.637Z,5.80
2022-10-22T01:36:37.588Z,5.20
2022-10-22T01:41:40.482Z,5.00
2022-10-22T01:46:42.418Z,5.10
2022-10-22T01:52:12.797Z,4.50
2022-10-22T01:57:28.867Z,4.80
2022-10-22T02:02:34.204Z,4.90
2022-10-22T02:07:43.904Z,4.70
2022-10-22T02:12:50.379Z,5.30
2022-10-22T02:17:55.364Z,4.90
2022-10-22T02:22:58.949Z,4.50
2022-10-22T02:28:13.116Z,4.80
2022-10-22T02:33:22.350Z,5.20
2022-10-22T02:38:26.851Z,4.60
2022-10-22T02:43:29.571Z,5.10
2022-10-22T02:48:31.389Z,5.40
2022-10-22T02:53:33.375Z,4.60
2022-10-22T02:58:35.269Z,4.80
2022-10-22T03:03:37.069Z,5.20
2022-10-22T03:08:40.931Z,4.70
2022-10-22T03:13:42.835Z,4.20
2022-10-22T03:18:44.603Z,5.10
2022-10-22T03:23:47.777Z,5.50
2022-10-22T03:28:49.974Z,5.00
2022-10-22T03:33:51.802Z,5.60
2022-10-22T03:38:54.276Z,5.10
2022-10-22T03:43:57.482Z,5.50
2022-10-22T03:48:59.218Z,5.00
2022-10-22T03:54:00.995Z,5.50
2022-10-22T03:59:03.391Z,4.80
2022-10-22T04:04:05.237Z,4.60
2022-10-22T04:09:07.270Z,5.30
2022-10-22T04:14:09.097Z,5.90
2022-10-22T04:19:10.861Z,5.20
2022-10-22T04:24:12.613Z,5.20
2022-10-22T04:29:16.154Z,4.90
2022-10-22T04:34:18.285Z,5.20
2022-10-22T04:39:20.042Z,4.70
2022-10-22T04:44:22.200Z,5.80
2022-10-22T04:49:24.312Z,5.90
2022-10-22T04:54:29.051Z,5.90
2022-10-22T04:59:34.021Z,4.60
2022-10-22T05:04:35.870Z,6.00
2022-10-22T05:09:37.756Z,5.20
2022-10-22T05:14:43.909Z,5.80
2022-10-22T05:19:46.648Z,5.20
2022-10-22T05:24:49.166Z,5.30
2022-10-22T05:29:51.074Z,4.90
2022-10-22T05:34:52.883Z,5.80
2022-10-22T05:40:01.914Z,5.80
2022-10-22T05:45:14.526Z,6.50
2022-10-22T05:50:16.393Z,5.60
2022-10-22T05:55:18.161Z,5.60
2022-10-22T06:00:20.121Z,5.20
2022-10-22T06:05:21.953Z,6.80
2022-10-22T06:10:23.953Z,5.60
2022-10-22T06:15:25.752Z,4.60
2022-10-22T06:20:27.637Z,4.70
2022-10-22T06:25:29.456Z,6.10
2022-10-22T06:30:31.300Z,5.00
2022-10-22T06:35:33.418Z,5.30
2022-10-22T06:40:35.178Z,5.20
2022-10-22T06:45:37.031Z,5.30
2022-10-22T06:50:38.834Z,5.30
2022-10-22T06:55:40.596Z,6.20
2022-10-22T07:00:42.364Z,5.90
2022-10-22T07:05:44.129Z,6.00
2022-10-22T07:10:45.847Z,5.60
2022-10-22T07:15:55.207Z,5.10
2022-10-22T07:20:57.380Z,6.10
2022-10-22T07:25:59.570Z,5.60
2022-10-22T07:31:01.399Z,6.10
2022-10-22T07:36:06.039Z,6.10
2022-10-22T07:41:07.993Z,6.20
2022-10-22T07:46:09.911Z,5.80
2022-10-22T07:51:11.826Z,6.50
2022-10-22T07:56:14.141Z,5.70
2022-10-22T08:01:16.040Z,5.70
2022-10-22T08:06:17.931Z,7.20
2022-10-22T08:11:19.795Z,6.90
2022-10-22T08:16:21.595Z,7.10
2022-10-22T08:21:23.448Z,6.90
2022-10-22T08:26:25.213Z,6.70
2022-10-22T08:31:27.011Z,5.90
2022-10-22T08:36:31.232Z,6.40
2022-10-22T08:41:40.438Z,6.30
2022-10-22T08:47:13.250Z,6.30
2022-10-22T08:52:18.736Z,6.10
2022-10-22T08:57:23.662Z,6.20
2022-10-22T09:02:28.173Z,6.00
2022-10-22T09:07:29.970Z,5.50
2022-10-22T09:12:31.768Z,6.90
2022-10-22T09:17:50.182Z,6.80
2022-10-22T09:22:57.538Z,7.00
2022-10-22T09:27:59.397Z,7.00
2022-10-22T09:33:07.273Z,7.40
2022-10-22T09:38:09.094Z,5.60
2022-10-22T09:43:14.917Z,7.40
2022-10-22T09:48:41.797Z,6.60
2022-10-22T09:53:47.374Z,10.90
2022-10-22T09:58:51.314Z,7.00
2022-10-22T10:03:53.548Z,8.00
2022-10-22T10:08:55.400Z,7.30
2022-10-22T10:14:21.581Z,7.70
2022-10-22T10:19:44.762Z,7.50
2022-10-22T10:24:56.602Z,6.80
2022-10-22T10:30:21.468Z,7.00
2022-10-22T10:35:55.101Z,7.40
2022-10-22T10:41:07.564Z,7.50
2022-10-22T10:46:29.520Z,7.00
2022-10-22T10:51:54.585Z,8.70
2022-10-22T10:57:10.130Z,8.30
2022-10-22T11:02:27.317Z,8.60
2022-10-22T11:07:37.017Z,8.00
2022-10-22T11:12:48.797Z,7.70
2022-10-22T11:17:53.051Z,8.80
2022-10-22T11:23:21.005Z,10.10
2022-10-22T11:28:40.325Z,8.40
2022-10-22T11:33:52.700Z,8.00
2022-10-22T11:38:59.007Z,10.30
2022-10-22T11:44:22.751Z,8.90
2022-10-22T11:49:41.990Z,9.50
2022-10-22T11:54:44.881Z,9.60
2022-10-22T11:59:46.596Z,9.30
2022-10-22T12:04:48.363Z,9.40
2022-10-22T12:14:59.674Z,8.60
2022-10-22T12:20:11.606Z,8.50
2022-10-22T12:25:22.276Z,8.80
2022-10-22T12:30:27.253Z,9.00
2022-10-22T12:35:33.076Z,9.90
2022-10-22T12:40:35.914Z,8.90
2022-10-22T12:45:39.208Z,9.90
2022-10-22T12:50:43.799Z,9.60
2022-10-22T12:55:49.624Z,9.30
2022-10-22T13:00:58.521Z,9.70
2022-10-22T13:06:30.143Z,9.60
2022-10-22T13:11:48.279Z,9.60
2022-10-22T13:17:09.022Z,8.70
2022-10-22T13:22:29.127Z,8.70
2022-10-22T13:32:34.061Z,9.70
2022-10-22T13:37:38.146Z,11.10
2022-10-22T13:42:40.403Z,8.60
2022-10-22T13:47:46.638Z,9.30
2022-10-22T13:52:53.365Z,11.00
2022-10-22T13:57:57.581Z,9.90
2022-10-22T14:03:00.255Z,10.50
2022-10-22T14:08:02.415Z,9.30
2022-10-22T14:13:07.249Z,10.90
2022-10-22T14:18:15.484Z,12.10
2022-10-22T14:23:20.782Z,11.40
2022-10-22T14:28:22.664Z,11.30
2022-10-22T14:33:31.501Z,12.80
2022-10-22T14:38:34.124Z,12.60
2022-10-22T14:43:35.981Z,12.40
2022-10-22T14:48:37.803Z,11.60
2022-10-22T14:53:39.618Z,14.00
2022-10-22T14:58:41.613Z,13.90
2022-10-22T15:03:43.729Z,14.50
2022-10-22T15:08:45.871Z,13.20
2022-10-22T15:13:47.936Z,25.00
2022-10-22T15:18:49.720Z,14.60
2022-10-22T15:23:51.525Z,14.30
2022-10-22T15:28:53.423Z,13.50
2022-10-22T15:33:59.465Z,12.50
2022-10-22T15:39:08.942Z,12.00
2022-10-22T15:44:19.728Z,11.90
2022-10-22T15:49:23.579Z,12.30
2022-10-22T15:54:28.759Z,28.20
2022-10-22T15:59:30.885Z,17.60
2022-10-22T16:04:33.146Z,15.00
2022-10-22T16:09:34.914Z,15.80
2022-10-22T16:14:37.065Z,13.10
2022-10-22T16:19:38.993Z,15.70
2022-10-22T16:24:41.124Z,14.20
2022-10-22T16:29:43.072Z,13.60
2022-10-22T16:34:45.020Z,15.70
2022-10-22T16:39:46.805Z,16.20
2022-10-22T16:44:48.706Z,14.60
2022-10-22T16:49:50.516Z,15.90
2022-10-22T16:54:52.362Z,15.40
2022-10-22T16:59:54.510Z,16.00
2022-10-22T17:04:56.332Z,15.90
2022-10-22T17:09:58.131Z,16.20
2022-10-22T17:15:00.095Z,16.00
2022-10-22T17:20:02.035Z,17.40
2022-10-22T17:25:22.049Z,17.30
2022-10-22T17:30:27.282Z,16.90
2022-10-22T17:35:29.225Z,17.10
2022-10-22T17:40:31.069Z,19.80
2022-10-22T17:45:33.004Z,17.50
2022-10-22T17:50:34.846Z,18.40
2022-10-22T17:55:36.753Z,16.90
2022-10-22T18:00:38.639Z,16.10
2022-10-22T18:05:40.506Z,17.20
2022-10-22T18:10:43.017Z,15.60
2022-10-22T18:15:44.818Z,14.90
2022-10-22T18:20:53.251Z,14.60
2022-10-22T18:25:55.101Z,14.20
2022-10-22T18:30:56.908Z,14.20
2022-10-22T18:36:04.483Z,14.80
2022-10-22T18:41:08.524Z,14.80
2022-10-22T18:46:10.308Z,13.80
2022-10-22T18:51:12.127Z,14.40
2022-10-22T18:56:13.901Z,12.90
2022-10-22T19:01:19.917Z,14.50
2022-10-22T19:06:32.000Z,13.70
2022-10-22T19:11:35.911Z,13.30
2022-10-22T19:16:38.708Z,12.10
2022-10-22T19:21:40.502Z,11.80
2022-10-22T19:26:42.635Z,14.10
2022-10-22T19:31:44.538Z,11.90
2022-10-22T19:36:46.401Z,12.10
2022-10-22T19:41:48.739Z,15.20
2022-10-22T19:46:50.493Z,14.20
2022-10-22T19:51:52.323Z,13.10
2022-10-22T19:56:54.132Z,12.20
2022-10-22T20:01:56.000Z,14.60
2022-10-22T20:06:58.080Z,12.40
2022-10-22T20:12:00.432Z,12.70
2022-10-22T20:17:02.255Z,13.80
2022-10-22T20:22:04.068Z,14.50
2022-10-22T20:27:05.845Z,13.60
2022-10-22T20:32:08.888Z,14.30
2022-10-22T20:37:10.981Z,13.30
2022-10-22T20:42:12.824Z,14.20
2022-10-22T20:47:14.612Z,14.60
2022-10-22T20:52:16.514Z,12.70
2022-10-22T20:57:18.290Z,13.70
2022-10-22T21:02:20.587Z,13.40
2022-10-22T21:07:22.511Z,14.30
2022-10-22T21:12:26.854Z,12.60
2022-10-22T21:17:28.802Z,12.30
2022-10-22T21:22:30.604Z,12.70
2022-10-22T21:27:32.390Z,12.80
2022-10-22T21:32:34.165Z,12.90
2022-10-22T21:37:35.997Z,13.30
2022-10-22T21:42:37.734Z,11.20
2022-10-22T21:47:46.261Z,11.90
2022-10-22T21:52:47.968Z,12.10
2022-10-22T21:57:49.751Z,11.80
2022-10-22T22:02:51.473Z,13.10
2022-10-22T22:07:53.220Z,11.20
2022-10-22T22:12:54.984Z,10.10
2022-10-22T22:17:56.803Z,11.70
2022-10-22T22:22:58.668Z,11.40
2022-10-22T22:28:00.423Z,11.80
2022-10-22T22:33:02.148Z,11.10
2022-10-22T22:38:04.066Z,12.30
2022-10-22T22:43:05.778Z,11.80
2022-10-22T22:48:07.946Z,11.20
2022-10-22T22:53:09.652Z,13.50
2022-10-22T22:58:11.416Z,12.70
2022-10-22T23:03:13.131Z,13.30
2022-10-22T23:08:14.891Z,11.70
2022-10-22T23:13:19.391Z,13.10
2022-10-22T23:18:21.121Z,11.60
2022-10-22T23:23:22.854Z,12.00
2022-10-22T23:28:24.703Z,13.20
2022-10-22T23:33:26.706Z,13.00
2022-10-22T23:38:29.031Z,12.20
2022-10-22T23:43:31.930Z,12.70
2022-10-22T23:48:33.906Z,12.30
2022-10-22T23:53:35.765Z,13.70
2022-10-22T23:58:38.168Z,13.50
